createdAt,value
2023-05-18T00:02:09.680Z,101850.13
2023-05-18T00:04:36.471Z,101844.91
2023-05-18T00:07:04.869Z,101846.63
2023-05-18T00:09:35.618Z,101843.16
2023-05-18T00:12:02.560Z,101836.16
2023-05-18T00:14:29.336Z,101830.94
2023-05-18T00:16:55.807Z,101830.06
2023-05-18T00:19:23.973Z,101833.53
2023-05-18T00:21:51.548Z,101830.91
2023-05-18T00:24:18.214Z,101825.66
2023-05-18T00:26:46.041Z,101822.06
2023-05-18T00:29:12.946Z,101802.91
2023-05-18T00:31:39.749Z,101806.38
2023-05-18T00:34:07.070Z,101794.97
2023-05-18T00:36:33.630Z,101774.19
2023-05-18T00:39:00.117Z,101778.56
2023-05-18T00:41:27.034Z,101776.78
2023-05-18T00:43:54.393Z,101779.38
2023-05-18T00:46:21.333Z,101765.47
2023-05-18T00:48:48.422Z,101782.78
2023-05-18T00:51:15.026Z,101781.84
2023-05-18T00:53:44.122Z,101779.09
2023-05-18T00:56:11.207Z,101776.44
2023-05-18T00:58:38.960Z,101776.44
2023-05-18T01:01:06.180Z,101766.03
2023-05-18T01:03:38.240Z,101762.50
2023-05-18T01:06:05.689Z,101752.88
2023-05-18T01:08:32.297Z,101716.47
2023-05-18T01:11:14.981Z,101720.72
2023-05-18T01:13:55.438Z,101727.63
2023-05-18T01:16:27.075Z,101735.41
2023-05-18T01:19:01.717Z,101744.00
2023-05-18T01:21:46.282Z,101731.78
2023-05-18T01:24:36.182Z,101725.72
2023-05-18T01:27:03.853Z,101725.72
2023-05-18T01:29:31.026Z,101726.56
2023-05-18T01:31:58.105Z,101729.13
2023-05-18T01:34:24.726Z,101727.38
2023-05-18T01:36:51.176Z,101722.97
2023-05-18T01:39:17.584Z,101725.50
2023-05-18T01:41:51.025Z,101721.19
2023-05-18T01:44:29.411Z,101728.06
2023-05-18T01:47:14.872Z,101715.88
2023-05-18T01:50:08.534Z,101689.91
2023-05-18T01:52:40.009Z,101673.44
2023-05-18T01:55:06.669Z,101666.50
2023-05-18T01:57:33.376Z,101668.28
2023-05-18T02:00:04.328Z,101680.41
2023-05-18T02:02:30.796Z,101685.53
2023-05-18T02:04:57.285Z,101690.72
2023-05-18T02:07:23.868Z,101690.66
2023-05-18T02:09:50.401Z,101690.53
2023-05-18T02:12:16.801Z,101694.78
2023-05-18T02:14:43.241Z,101688.69
2023-05-18T02:17:10.125Z,101683.41
2023-05-18T02:19:39.508Z,101675.53
2023-05-18T02:22:06.941Z,101662.53
2023-05-18T02:24:33.807Z,101646.03
2023-05-18T02:27:01.326Z,101653.81
2023-05-18T02:29:27.795Z,101664.19
2023-05-18T02:31:54.318Z,101650.28
2023-05-18T02:34:22.767Z,101641.63
2023-05-18T02:36:49.608Z,101629.50
2023-05-18T02:39:16.256Z,101626.03
2023-05-18T02:41:42.645Z,101622.59
2023-05-18T02:44:09.304Z,101623.41
2023-05-18T02:46:35.888Z,101630.28
2023-05-18T02:49:02.296Z,101641.50
2023-05-18T02:51:29.942Z,101649.22
2023-05-18T02:53:57.401Z,101651.78
2023-05-18T02:56:24.722Z,101659.53
2023-05-18T02:58:57.941Z,101670.75
2023-05-18T03:01:27.813Z,101646.44
2023-05-18T03:03:54.682Z,101648.13
2023-05-18T03:06:26.436Z,101652.34
2023-05-18T03:08:56.087Z,101627.19
2023-05-18T03:11:23.144Z,101623.69
2023-05-18T03:13:49.747Z,101615.91
2023-05-18T03:16:16.201Z,101609.84
2023-05-18T03:18:42.615Z,101608.09
2023-05-18T03:21:10.244Z,101602.03
2023-05-18T03:23:36.658Z,101604.63
2023-05-18T03:26:03.926Z,101601.19
2023-05-18T03:28:30.793Z,101590.75
2023-05-18T03:30:57.695Z,101569.06
2023-05-18T03:33:24.243Z,101523.28
2023-05-18T03:35:52.426Z,101530.22
2023-05-18T03:38:19.388Z,101550.13
2023-05-18T03:40:45.926Z,101568.25
2023-05-18T03:43:12.498Z,101575.97
2023-05-18T03:45:38.962Z,101569.84
2023-05-18T03:48:05.741Z,101571.63
2023-05-18T03:50:32.740Z,101573.38
2023-05-18T03:52:59.184Z,101581.22
2023-05-18T03:55:26.273Z,101575.16
2023-05-18T03:57:53.970Z,101570.81
2023-05-18T04:00:20.383Z,101559.59
2023-05-18T04:02:47.370Z,101549.22
2023-05-18T04:05:13.987Z,101552.72
2023-05-18T04:07:44.416Z,101559.66
2023-05-18T04:10:12.012Z,101561.41
2023-05-18T04:12:38.618Z,101551.06
2023-05-18T04:15:05.510Z,101545.81
2023-05-18T04:17:32.131Z,101536.31
2023-05-18T04:19:58.555Z,101530.25
2023-05-18T04:22:25.219Z,101526.81
2023-05-18T04:24:55.237Z,101531.19
2023-05-18T04:27:22.614Z,101525.13
2023-05-18T04:29:49.187Z,101516.47
2023-05-18T04:32:18.452Z,101511.28
2023-05-18T04:34:49.386Z,101516.50
2023-05-18T04:37:17.902Z,101514.84
2023-05-18T04:39:44.371Z,101511.38
2023-05-18T04:42:10.813Z,101510.53
2023-05-18T04:44:38.974Z,101492.41
2023-05-18T04:47:08.372Z,101483.81
2023-05-18T04:49:34.955Z,101482.19
2023-05-18T04:52:01.471Z,101485.69
2023-05-18T04:54:32.290Z,101473.63
2023-05-18T04:56:58.998Z,101464.16
2023-05-18T04:59:26.344Z,101440.81
2023-05-18T05:01:53.661Z,101425.31
2023-05-18T05:04:21.334Z,101416.69
2023-05-18T05:06:47.987Z,101392.50
2023-05-18T05:09:14.796Z,101394.31
2023-05-18T05:11:41.778Z,101357.06
2023-05-18T05:14:08.191Z,101354.53
2023-05-18T05:16:35.103Z,101342.44
2023-05-18T05:19:01.639Z,101328.63
2023-05-18T05:21:28.205Z,101292.25
2023-05-18T05:23:54.589Z,101285.34
2023-05-18T05:26:21.540Z,101249.00
2023-05-18T05:28:48.062Z,101240.38
2023-05-18T05:31:14.491Z,101224.75
2023-05-18T05:33:41.163Z,101195.34
2023-05-18T05:36:08.596Z,101176.28
2023-05-18T05:38:35.324Z,101145.06
2023-05-18T05:41:01.778Z,101161.56
2023-05-18T05:43:28.192Z,101240.53
2023-05-18T05:45:54.646Z,101379.38
2023-05-18T05:48:21.331Z,101386.38
2023-05-18T05:50:47.802Z,101369.00
2023-05-18T05:53:17.961Z,101338.63
2023-05-18T05:55:44.722Z,101337.75
2023-05-18T05:58:11.122Z,101358.63
2023-05-18T06:00:37.507Z,101376.84
2023-05-18T06:03:04.002Z,101331.69
2023-05-18T06:05:30.673Z,101339.53
2023-05-18T06:07:57.326Z,101288.28
2023-05-18T06:10:23.968Z,101348.19
2023-05-18T06:12:50.544Z,101414.22
2023-05-18T06:15:18.773Z,101428.16
2023-05-18T06:17:45.548Z,101422.91
2023-05-18T06:20:12.865Z,101443.78
2023-05-18T06:22:39.347Z,101489.88
2023-05-18T06:25:06.049Z,101501.16
2023-05-18T06:27:33.093Z,101642.00
2023-05-18T06:29:59.663Z,101714.22
2023-05-18T06:32:26.168Z,101708.19
2023-05-18T06:34:52.714Z,101695.16
2023-05-18T06:37:20.804Z,101730.88
2023-05-18T06:39:47.246Z,101736.09
2023-05-18T06:42:13.680Z,101759.63
2023-05-18T06:44:40.139Z,101802.31
2023-05-18T06:47:07.147Z,101817.16
2023-05-18T06:49:33.557Z,101822.41
2023-05-18T06:51:59.943Z,101872.91
2023-05-18T06:54:26.548Z,101871.19
2023-05-18T06:56:53.002Z,101911.25
2023-05-18T06:59:19.387Z,101921.69
2023-05-18T07:01:46.300Z,101926.06
2023-05-18T07:04:12.960Z,101931.31
2023-05-18T07:06:39.587Z,101931.34
2023-05-18T07:09:07.994Z,101919.16
2023-05-18T07:11:34.565Z,101943.56
2023-05-18T07:14:01.003Z,101946.16
2023-05-18T07:16:28.084Z,101962.72
2023-05-18T07:18:56.570Z,101957.53
2023-05-18T07:21:23.078Z,101978.47
2023-05-18T07:23:49.525Z,101982.00
2023-05-18T07:26:16.082Z,101992.50
2023-05-18T07:28:42.708Z,102019.53
2023-05-18T07:31:09.125Z,102044.78
2023-05-18T07:33:35.659Z,102055.28
2023-05-18T07:36:02.251Z,102038.72
2023-05-18T07:38:28.685Z,102031.75
2023-05-18T07:40:55.111Z,102039.59
2023-05-18T07:43:21.558Z,102047.47
2023-05-18T07:45:47.966Z,102041.38
2023-05-18T07:48:14.385Z,102048.34
2023-05-18T07:50:41.376Z,102057.09
2023-05-18T07:53:08.012Z,102058.81
2023-05-18T07:55:34.554Z,102064.94
2023-05-18T07:58:01.297Z,102067.53
2023-05-18T08:00:28.049Z,102073.66
2023-05-18T08:02:54.916Z,102081.53
2023-05-18T08:05:22.686Z,102085.03
2023-05-18T08:07:49.490Z,102092.00
2023-05-18T08:10:16.082Z,102079.78
2023-05-18T08:12:42.726Z,102092.03
2023-05-18T08:15:09.809Z,102095.53
2023-05-18T08:17:36.667Z,102106.00
2023-05-18T08:20:05.068Z,102097.22
2023-05-18T08:22:31.492Z,102099.03
2023-05-18T08:25:00.842Z,102098.09
2023-05-18T08:27:28.943Z,102103.31
2023-05-18T08:29:55.380Z,102098.94
2023-05-18T08:32:21.884Z,102104.19
2023-05-18T08:34:51.341Z,102107.69
2023-05-18T08:37:18.020Z,102104.13
2023-05-18T08:39:46.056Z,102103.28
2023-05-18T08:42:20.753Z,102097.19
2023-05-18T08:44:53.714Z,102089.31
2023-05-18T08:47:25.836Z,102088.38
2023-05-18T08:49:52.918Z,102090.94
2023-05-18T08:52:19.604Z,102088.41
2023-05-18T08:54:46.181Z,102077.88
2023-05-18T08:57:12.696Z,102086.56
2023-05-18T08:59:41.318Z,102091.75
2023-05-18T09:02:08.415Z,102089.94
2023-05-18T09:04:34.879Z,102087.34
2023-05-18T09:07:02.960Z,102086.50
2023-05-18T09:09:29.475Z,102093.50
2023-05-18T09:11:56.377Z,102093.41
2023-05-18T09:14:25.937Z,102087.19
2023-05-18T09:16:55.796Z,102094.03
2023-05-18T09:19:24.565Z,102092.31
2023-05-18T09:21:51.116Z,102095.00
2023-05-18T09:24:19.472Z,102094.19
2023-05-18T09:26:46.349Z,102086.31
2023-05-18T09:29:24.322Z,102093.19
2023-05-18T09:31:50.949Z,102098.47
2023-05-18T09:34:19.275Z,102089.66
2023-05-18T09:36:57.161Z,102084.28
2023-05-18T09:39:23.580Z,102086.78
2023-05-18T09:41:55.706Z,102076.00
2023-05-18T09:44:30.898Z,102073.19
2023-05-18T09:46:57.582Z,102087.31
2023-05-18T09:49:24.070Z,102080.25
2023-05-18T09:51:50.520Z,102092.56
2023-05-18T09:54:16.918Z,102094.41
2023-05-18T09:56:43.699Z,102093.59
2023-05-18T09:59:11.828Z,102094.56
2023-05-18T10:01:45.551Z,102090.97
2023-05-18T10:04:12.216Z,102085.44
2023-05-18T10:06:38.640Z,102077.34
2023-05-18T10:09:06.055Z,102084.44
2023-05-18T10:11:33.145Z,102077.22
2023-05-18T10:13:59.545Z,102074.41
2023-05-18T10:16:25.999Z,102067.50
2023-05-18T10:18:53.475Z,102068.91
2023-05-18T10:21:20.254Z,102068.50
2023-05-18T10:23:46.676Z,102068.88
2023-05-18T10:26:13.089Z,102073.00
2023-05-18T10:28:44.349Z,102076.66
2023-05-18T10:31:10.980Z,102071.22
2023-05-18T10:33:38.005Z,102067.53
2023-05-18T10:36:05.516Z,102066.41
2023-05-18T10:38:32.421Z,102062.50
2023-05-18T10:41:00.242Z,102057.28
2023-05-18T10:43:27.819Z,102055.41
2023-05-18T10:45:57.086Z,102062.56
2023-05-18T10:48:23.908Z,102050.22
2023-05-18T10:50:51.635Z,102054.63
2023-05-18T10:53:19.165Z,102041.50
2023-05-18T10:55:47.237Z,102047.97
2023-05-18T10:58:16.039Z,102048.06
2023-05-18T11:00:44.757Z,102036.72
2023-05-18T11:03:13.537Z,102039.69
2023-05-18T11:05:41.001Z,102035.56
2023-05-18T11:08:07.542Z,102040.91
2023-05-18T11:10:44.314Z,102025.75
2023-05-18T11:13:13.737Z,102031.94
2023-05-18T11:16:01.719Z,102031.31
2023-05-18T11:19:07.218Z,102035.00
2023-05-18T11:21:36.929Z,102026.13
2023-05-18T11:24:19.314Z,102036.31
2023-05-18T11:27:15.280Z,102034.56
2023-05-18T11:29:42.389Z,102029.03
2023-05-18T11:32:30.365Z,102028.13
2023-05-18T11:34:57.740Z,102030.28
2023-05-18T11:37:39.561Z,102030.19
2023-05-18T11:40:11.776Z,102023.16
2023-05-18T11:42:38.419Z,102010.78
2023-05-18T11:45:08.804Z,102008.72
2023-05-18T11:47:36.623Z,102012.16
2023-05-18T11:50:03.260Z,102015.91
2023-05-18T11:52:29.873Z,102023.84
2023-05-18T11:54:59.912Z,102024.75
2023-05-18T11:57:35.535Z,102019.31
2023-05-18T12:00:06.292Z,102021.91
2023-05-18T12:02:33.034Z,102020.63
2023-05-18T12:05:00.426Z,102019.22
2023-05-18T12:07:30.621Z,102017.88
2023-05-18T12:10:14.905Z,102022.66
2023-05-18T12:12:41.692Z,102015.16
2023-05-18T12:15:09.101Z,102009.72
2023-05-18T12:17:43.092Z,102015.97
2023-05-18T12:20:16.164Z,102018.03
2023-05-18T12:22:44.384Z,102003.22
2023-05-18T12:25:11.296Z,102010.97
2023-05-18T12:27:43.788Z,102002.91
2023-05-18T12:30:14.126Z,102001.28
2023-05-18T12:32:44.687Z,102010.88
2023-05-18T12:35:11.097Z,102011.16
2023-05-18T12:37:45.984Z,102009.25
2023-05-18T12:40:13.957Z,102012.34
2023-05-18T12:42:40.879Z,102005.00
2023-05-18T12:45:09.513Z,102010.34
2023-05-18T12:47:41.109Z,102007.06
2023-05-18T12:50:07.927Z,102004.75
2023-05-18T12:52:34.349Z,101995.94
2023-05-18T12:55:01.129Z,102006.00
2023-05-18T12:57:27.882Z,101987.78
2023-05-18T12:59:54.695Z,101992.72
2023-05-18T13:02:32.291Z,101990.66
2023-05-18T13:05:02.422Z,101999.69
2023-05-18T13:07:28.848Z,101996.44
2023-05-18T13:10:00.694Z,101991.13
2023-05-18T13:12:42.974Z,101988.19
2023-05-18T13:15:13.732Z,101980.13
2023-05-18T13:17:48.933Z,101980.56
2023-05-18T13:20:16.988Z,101969.59
2023-05-18T13:22:43.457Z,101978.59
2023-05-18T13:25:10.270Z,101969.28
2023-05-18T13:27:36.777Z,101967.72
2023-05-18T13:30:03.330Z,101969.44
2023-05-18T13:32:29.832Z,101959.88
2023-05-18T13:34:56.277Z,101960.59
2023-05-18T13:37:22.961Z,101959.22
2023-05-18T13:39:49.421Z,101959.75
2023-05-18T13:42:15.893Z,101961.75
2023-05-18T13:44:42.329Z,101959.06
2023-05-18T13:47:08.751Z,101951.91
2023-05-18T13:49:35.122Z,101951.81
2023-05-18T13:52:01.568Z,101952.56
2023-05-18T13:54:28.198Z,101950.25
2023-05-18T13:56:54.645Z,101944.16
2023-05-18T13:59:21.974Z,101949.44
2023-05-18T14:01:49.605Z,101936.19
2023-05-18T14:04:16.089Z,101940.88
2023-05-18T14:06:42.483Z,101936.00
2023-05-18T14:09:09.155Z,101936.25
2023-05-18T14:11:36.868Z,101943.06
2023-05-18T14:14:03.278Z,101934.19
2023-05-18T14:16:29.948Z,101934.44
2023-05-18T14:18:56.394Z,101927.06
2023-05-18T14:21:22.787Z,101924.06
2023-05-18T14:23:49.373Z,101919.03
2023-05-18T14:26:15.832Z,101916.00
2023-05-18T14:28:42.248Z,101911.56
2023-05-18T14:31:08.757Z,101907.97
2023-05-18T14:33:35.175Z,101908.34
2023-05-18T14:36:01.815Z,101907.56
2023-05-18T14:38:28.462Z,101899.13
2023-05-18T14:40:54.893Z,101907.72
2023-05-18T14:43:21.314Z,101901.59
2023-05-18T14:45:56.516Z,101905.56
2023-05-18T14:48:33.536Z,101897.16
2023-05-18T14:51:00.170Z,101900.44
2023-05-18T14:53:26.582Z,101893.56
2023-05-18T14:55:52.990Z,101895.56
2023-05-18T14:58:19.410Z,101895.88
2023-05-18T15:00:45.905Z,101892.03
2023-05-18T15:03:12.819Z,101889.81
2023-05-18T15:05:39.475Z,101898.47
2023-05-18T15:08:05.868Z,101892.59
2023-05-18T15:10:32.417Z,101900.81
2023-05-18T15:12:59.652Z,101899.66
2023-05-18T15:15:26.739Z,101898.00
2023-05-18T15:17:53.472Z,101903.53
2023-05-18T15:20:19.993Z,101895.19
2023-05-18T15:22:46.416Z,101888.34
2023-05-18T15:25:12.899Z,101882.28
2023-05-18T15:27:39.357Z,101894.97
2023-05-18T15:30:11.272Z,101894.72
2023-05-18T15:32:41.072Z,101895.38
2023-05-18T15:35:07.807Z,101892.84
2023-05-18T15:37:34.214Z,101893.53
2023-05-18T15:40:01.010Z,101889.69
2023-05-18T15:42:27.472Z,101895.53
2023-05-18T15:44:53.875Z,101896.13
2023-05-18T15:47:20.297Z,101887.19
2023-05-18T15:49:46.672Z,101888.94
2023-05-18T15:52:13.098Z,101888.91
2023-05-18T15:54:39.601Z,101887.88
2023-05-18T15:57:06.197Z,101880.94
2023-05-18T15:59:32.589Z,101884.28
2023-05-18T16:01:59.063Z,101885.59
2023-05-18T16:04:25.594Z,101873.75
2023-05-18T16:06:51.982Z,101879.22
2023-05-18T16:09:18.439Z,101878.25
2023-05-18T16:11:44.836Z,101883.53
2023-05-18T16:14:11.235Z,101884.03
2023-05-18T16:16:37.689Z,101879.63
2023-05-18T16:19:05.482Z,101881.41
2023-05-18T16:21:32.002Z,101887.28
2023-05-18T16:23:58.463Z,101885.19
2023-05-18T16:26:24.890Z,101891.78
2023-05-18T16:28:51.319Z,101884.13
2023-05-18T16:31:17.827Z,101884.13
2023-05-18T16:33:44.436Z,101882.78
2023-05-18T16:36:11.365Z,101878.47
2023-05-18T16:38:38.352Z,101882.59
2023-05-18T16:41:05.072Z,101881.63
2023-05-18T16:43:31.499Z,101885.06
2023-05-18T16:45:58.106Z,101883.44
2023-05-18T16:48:24.582Z,101890.47
2023-05-18T16:50:51.120Z,101884.81
2023-05-18T16:53:17.574Z,101886.50
2023-05-18T16:55:43.945Z,101879.09
2023-05-18T16:58:10.957Z,101876.75
2023-05-18T17:00:37.434Z,101884.94
2023-05-18T17:03:04.196Z,101885.84
2023-05-18T17:05:30.632Z,101875.81
2023-05-18T17:07:57.135Z,101877.19
2023-05-18T17:10:23.553Z,101886.72
2023-05-18T17:12:50.016Z,101883.50
2023-05-18T17:15:16.492Z,101874.56
2023-05-18T17:17:43.170Z,101887.25
2023-05-18T17:20:10.734Z,101884.44
2023-05-18T17:22:37.621Z,101885.69
2023-05-18T17:25:07.660Z,101887.50
2023-05-18T17:27:34.139Z,101892.22
2023-05-18T17:30:00.584Z,101888.69
2023-05-18T17:32:27.024Z,101886.22
2023-05-18T17:34:53.461Z,101891.53
2023-05-18T17:37:20.244Z,101894.81
2023-05-18T17:39:46.660Z,101884.38
2023-05-18T17:42:13.058Z,101894.25
2023-05-18T17:44:39.677Z,101894.09
2023-05-18T17:47:06.282Z,101889.66
2023-05-18T17:49:33.002Z,101897.81
2023-05-18T17:51:59.482Z,101891.06
2023-05-18T17:54:26.361Z,101890.16
2023-05-18T17:56:52.855Z,101889.22
2023-05-18T17:59:19.281Z,101896.38
2023-05-18T18:01:45.775Z,101896.09
2023-05-18T18:04:12.355Z,101897.94
2023-05-18T18:06:39.108Z,101888.34
2023-05-18T18:09:05.634Z,101896.66
2023-05-18T18:11:32.098Z,101897.00
2023-05-18T18:13:58.717Z,101894.09
2023-05-18T18:16:25.515Z,101895.94
2023-05-18T18:18:52.258Z,101900.84
2023-05-18T18:21:18.861Z,101898.34
2023-05-18T18:23:45.266Z,101906.91
2023-05-18T18:26:11.686Z,101905.59
2023-05-18T18:28:38.177Z,101911.28
2023-05-18T18:31:04.752Z,101909.75
2023-05-18T18:33:32.584Z,101922.16
2023-05-18T18:36:00.457Z,101918.72
2023-05-18T18:38:27.146Z,101920.75
2023-05-18T18:40:57.690Z,101917.13
2023-05-18T18:43:24.157Z,101915.41
2023-05-18T18:45:50.565Z,101920.03
2023-05-18T18:48:21.006Z,101920.09
2023-05-18T18:50:47.462Z,101929.97
2023-05-18T18:53:13.866Z,101925.81
2023-05-18T18:55:40.507Z,101929.59
2023-05-18T18:58:08.026Z,101933.28
2023-05-18T19:00:34.454Z,101928.97
2023-05-18T19:03:00.939Z,101934.34
2023-05-18T19:05:28.338Z,101923.09
2023-05-18T19:07:55.042Z,101934.78
2023-05-18T19:10:22.597Z,101935.13
2023-05-18T19:12:49.263Z,101934.50
2023-05-18T19:15:16.194Z,101937.38
2023-05-18T19:17:43.417Z,101939.09
2023-05-18T19:20:10.346Z,101940.91
2023-05-18T19:22:36.764Z,101938.59
2023-05-18T19:25:03.427Z,101941.22
2023-05-18T19:27:29.963Z,101947.66
2023-05-18T19:29:56.360Z,101951.97
2023-05-18T19:32:22.793Z,101948.47
2023-05-18T19:34:49.254Z,101949.53
2023-05-18T19:37:15.840Z,101947.97
2023-05-18T19:39:42.302Z,101936.59
2023-05-18T19:42:08.911Z,101938.41
2023-05-18T19:44:35.555Z,101942.06
2023-05-18T19:47:01.988Z,101938.63
2023-05-18T19:49:29.678Z,101937.06
2023-05-18T19:51:56.276Z,101944.19
2023-05-18T19:54:22.708Z,101939.06
2023-05-18T19:56:49.130Z,101941.81
2023-05-18T19:59:15.616Z,101948.03
2023-05-18T20:01:42.098Z,101945.44
2023-05-18T20:04:08.751Z,101942.06
2023-05-18T20:06:35.226Z,101942.19
2023-05-18T20:09:01.689Z,101940.50
2023-05-18T20:11:28.146Z,101943.28
2023-05-18T20:13:54.553Z,101931.06
2023-05-18T20:16:21.244Z,101941.63
2023-05-18T20:18:47.788Z,101951.34
2023-05-18T20:21:14.290Z,101940.06
2023-05-18T20:23:40.779Z,101941.84
2023-05-18T20:26:07.681Z,101943.63
2023-05-18T20:28:35.368Z,101936.72
2023-05-18T20:31:01.796Z,101943.78
2023-05-18T20:33:30.094Z,101943.84
2023-05-18T20:35:56.570Z,101940.38
2023-05-18T20:38:25.627Z,101939.53
2023-05-18T20:40:53.552Z,101938.75
2023-05-18T20:43:21.081Z,101942.28
2023-05-18T20:45:49.298Z,101944.09
2023-05-18T20:48:24.779Z,101945.03
2023-05-18T20:50:51.968Z,101945.09
2023-05-18T20:53:18.555Z,101941.66
2023-05-18T20:55:47.756Z,101943.47
2023-05-18T20:58:14.839Z,101943.56
2023-05-18T21:00:41.530Z,101942.69
2023-05-18T21:03:08.076Z,101951.50
2023-05-18T21:05:34.682Z,101948.03
2023-05-18T21:08:01.152Z,101941.06
2023-05-18T21:10:27.581Z,101938.50
2023-05-18T21:12:53.971Z,101939.41
2023-05-18T21:15:20.419Z,101934.22
2023-05-18T21:17:46.843Z,101928.16
2023-05-18T21:20:13.351Z,101922.97
2023-05-18T21:22:39.766Z,101928.22
2023-05-18T21:25:06.733Z,101929.13
2023-05-18T21:27:33.235Z,101921.28
2023-05-18T21:29:59.674Z,101914.31
2023-05-18T21:32:26.261Z,101920.47
2023-05-18T21:34:52.788Z,101908.25
2023-05-18T21:37:19.502Z,101909.97
2023-05-18T21:39:46.681Z,101932.69
2023-05-18T21:42:13.075Z,101934.44
2023-05-18T21:44:39.482Z,101928.34
2023-05-18T21:47:05.952Z,101926.63
2023-05-18T21:49:32.387Z,101924.03
2023-05-18T21:51:58.846Z,101921.41
2023-05-18T21:54:26.374Z,101924.03
2023-05-18T21:56:52.801Z,101923.19
2023-05-18T21:59:19.611Z,101917.09
2023-05-18T22:01:46.012Z,101917.13
2023-05-18T22:04:12.479Z,101912.75
2023-05-18T22:06:38.935Z,101904.00
2023-05-18T22:09:06.295Z,101913.66
2023-05-18T22:11:32.762Z,101911.03
2023-05-18T22:13:59.153Z,101906.63
2023-05-18T22:16:25.671Z,101904.91
2023-05-18T22:18:52.127Z,101903.16
2023-05-18T22:21:18.798Z,101899.66
2023-05-18T22:23:45.619Z,101904.94
2023-05-18T22:26:12.166Z,101906.66
2023-05-18T22:28:38.601Z,101903.16
2023-05-18T22:31:05.452Z,101904.06
2023-05-18T22:33:31.870Z,101904.06
2023-05-18T22:35:58.339Z,101897.06
2023-05-18T22:38:24.815Z,101901.44
2023-05-18T22:40:54.144Z,101892.72
2023-05-18T22:43:21.262Z,101889.22
2023-05-18T22:45:47.846Z,101884.88
2023-05-18T22:48:14.516Z,101884.88
2023-05-18T22:50:40.921Z,101899.75
2023-05-18T22:55:36.695Z,101885.75
2023-05-18T22:58:03.150Z,101882.28
2023-05-18T23:00:30.150Z,101874.47
2023-05-18T23:02:56.950Z,101879.75
2023-05-18T23:05:23.548Z,101863.19
2023-05-18T23:07:50.103Z,101860.56
2023-05-18T23:10:16.493Z,101861.44
2023-05-18T23:12:45.455Z,101849.25
2023-05-18T23:15:11.915Z,101857.09
2023-05-18T23:17:39.501Z,101868.47
2023-05-18T23:20:07.273Z,101858.84
2023-05-18T23:22:34.806Z,101872.81
2023-05-18T23:25:02.033Z,101863.16
2023-05-18T23:27:28.452Z,101880.63
2023-05-18T23:29:55.041Z,101873.66
2023-05-18T23:32:21.649Z,101878.88
2023-05-18T23:34:48.310Z,101871.00
2023-05-18T23:37:14.879Z,101876.28
2023-05-18T23:39:41.467Z,101882.38
2023-05-18T23:42:08.296Z,101867.56
2023-05-18T23:44:35.004Z,101869.28
2023-05-18T23:47:01.840Z,101870.16
2023-05-18T23:49:28.953Z,101867.50
2023-05-18T23:51:55.444Z,101866.59
2023-05-18T23:54:22.157Z,101870.16
2023-05-18T23:56:49.642Z,101860.53
2023-05-18T23:59:16.363Z,101859.69
